Time;durP1;ratioP1;P1;durP2;ratioP2;P2;SDS_P1;SDS_P2;PMS_P1;PMS_P2;Temp;Humidity;BMP_temperature;BMP_pressure;BME280_temperature;BME280_humidity;BME280_pressure;Samples;Min_cycle;Max_cycle;Signal;HPM_P1;HPM_P2
2021/08/12 00:01:10;;;;;;;20.02;12.52;;;;;;;15.62;92.52;102132.75;4983736;28;20097;-71
2021/08/12 00:03:39;;;;;;;23.67;12.05;;;;;;;15.66;92.74;102134.44;4981658;28;20344;-71
2021/08/12 00:06:07;;;;;;;22.10;13.07;;;;;;;15.67;93.21;102129.94;4983332;28;20377;-75
2021/08/12 00:08:34;;;;;;;21.08;11.70;;;;;;;15.63;92.57;102125.56;4982900;28;21507;-71
2021/08/12 00:11:03;;;;;;;20.75;11.00;;;;;;;15.59;91.14;102121.22;4980767;28;20074;-71
2021/08/12 00:13:31;;;;;;;22.38;11.27;;;;;;;15.59;92.35;102127.47;4980419;28;20058;-71
2021/08/12 00:15:59;;;;;;;18.20;11.73;;;;;;;15.55;92.09;102124.97;4981142;28;20065;-71
2021/08/12 00:18:29;;;;;;;21.75;10.82;;;;;;;15.56;92.32;102132.09;4979997;28;20046;-71
2021/08/12 00:20:57;;;;;;;22.65;11.70;;;;;;;15.56;93.08;102132.09;4982830;28;20073;-71
2021/08/12 00:23:26;;;;;;;26.52;12.75;;;;;;;15.55;93.01;102125.81;4980261;28;20141;-71
2021/08/12 00:25:56;;;;;;;20.90;11.63;;;;;;;15.52;91.37;102127.75;4984683;28;20213;-71
2021/08/12 00:28:25;;;;;;;20.05;11.15;;;;;;;15.48;92.22;102125.16;4980942;28;20057;-71
2021/08/12 00:30:52;;;;;;;21.17;12.82;;;;;;;15.43;93.23;102121.72;4984210;28;20066;-72
2021/08/12 00:33:20;;;;;;;21.67;12.18;;;;;;;15.42;93.70;102124.47;4980262;28;20105;-72
2021/08/12 00:35:50;;;;;;;23.80;13.68;;;;;;;15.41;94.10;102120.91;4979477;28;20085;-71
2021/08/12 00:38:17;;;;;;;24.80;12.35;;;;;;;15.41;94.50;102117.31;4981619;28;20058;-72
2021/08/12 00:40:45;;;;;;;22.90;12.85;;;;;;;15.39;94.46;102113.78;4980956;28;20096;-70
2021/08/12 00:43:13;;;;;;;22.73;13.05;;;;;;;15.37;93.54;102121.03;4981288;28;20148;-70
2021/08/12 00:45:44;;;;;;;20.00;12.70;;;;;;;15.33;93.32;102120.25;4980783;28;20046;-70
2021/08/12 00:48:12;;;;;;;20.65;12.52;;;;;;;15.31;93.72;102120.31;4979434;28;20066;-72
2021/08/12 00:50:42;;;;;;;22.13;12.52;;;;;;;15.26;93.38;102114.19;4983740;28;20054;-70
2021/08/12 00:53:11;;;;;;;20.67;12.40;;;;;;;15.28;94.41;102109.63;4978185;28;20151;-70
2021/08/12 00:55:42;;;;;;;24.98;13.35;;;;;;;15.29;94.34;102103.34;4981332;28;20449;-70
2021/08/12 00:58:11;;;;;;;25.45;13.70;;;;;;;15.35;95.50;102102.25;4987159;28;20069;-72
2021/08/12 01:00:39;;;;;;;23.38;15.27;;;;;;;15.32;95.94;102105.94;4986920;28;20066;-71
2021/08/12 01:03:09;;;;;;;25.15;14.15;;;;;;;15.35;96.46;102112.16;4987899;28;20066;-70
2021/08/12 01:05:43;;;;;;;24.65;15.23;;;;;;;15.37;96.30;102111.16;4984534;28;20656;-72
2021/08/12 01:08:18;;;;;;;25.10;14.52;;;;;;;15.38;96.55;102104.84;4977797;28;20132;-70
2021/08/12 01:10:51;;;;;;;22.20;13.43;;;;;;;15.38;96.32;102107.53;4978380;28;20077;-72
2021/08/12 01:13:31;;;;;;;22.67;14.00;;;;;;;15.36;95.30;102105.81;4978258;28;20058;-72
2021/08/12 01:16:02;;;;;;;18.52;11.30;;;;;;;15.34;95.77;102105.00;4976639;28;20062;-70
2021/08/12 01:18:42;;;;;;;23.42;12.38;;;;;;;15.31;95.71;102103.31;4978938;28;20144;-70
2021/08/12 01:21:25;;;;;;;20.88;13.23;;;;;;;15.29;96.19;102105.16;4978373;28;20086;-70
2021/08/12 01:23:59;;;;;;;24.45;13.77;;;;;;;15.24;96.81;102108.00;4980533;28;20154;-71
2021/08/12 01:26:32;;;;;;;21.48;12.30;;;;;;;15.22;96.22;102103.56;4976783;28;20113;-70
2021/08/12 01:29:04;;;;;;;25.27;12.70;;;;;;;15.17;95.53;102111.81;4979823;28;20352;-70
2021/08/12 01:31:44;;;;;;;20.67;12.93;;;;;;;15.11;96.50;102110.16;4975330;28;20066;-70
2021/08/12 01:34:22;;;;;;;25.58;12.75;;;;;;;15.08;96.26;102110.25;4977475;28;20471;-70
2021/08/12 01:36:54;;;;;;;25.95;13.18;;;;;;;15.09;95.45;102111.16;4977072;28;20511;-70
2021/08/12 01:39:24;;;;;;;23.00;13.15;;;;;;;15.04;95.78;102105.03;4978820;28;20055;-71
2021/08/12 01:41:54;;;;;;;20.92;13.98;;;;;;;15.02;97.04;102099.72;4979481;28;20058;-71
2021/08/12 01:44:25;;;;;;;20.40;12.43;;;;;;;15.05;96.85;102086.19;4979367;28;20066;-70
2021/08/12 01:46:54;;;;;;;23.65;13.52;;;;;;;15.03;96.75;102088.00;4978588;28;20492;-70
2021/08/12 01:49:23;;;;;;;23.50;12.98;;;;;;;15.01;96.57;102089.88;4980302;28;20062;-71
2021/08/12 01:51:53;;;;;;;25.30;13.88;;;;;;;15.00;97.28;102096.19;4979433;28;20093;-70
2021/08/12 01:54:22;;;;;;;18.83;11.52;;;;;;;14.95;96.31;102087.41;4978009;28;20074;-70
2021/08/12 01:56:52;;;;;;;20.35;13.15;;;;;;;14.98;97.24;102094.47;4977636;28;20093;-71
2021/08/12 01:59:23;;;;;;;21.00;12.57;;;;;;;14.93;96.76;102094.59;4979742;28;20062;-70
2021/08/12 02:01:51;;;;;;;20.02;12.07;;;;;;;14.89;96.41;102080.38;4976858;28;20054;-69
2021/08/12 02:04:19;;;;;;;20.63;12.00;;;;;;;14.89;96.51;102084.88;4976971;28;20050;-70
2021/08/12 02:06:49;;;;;;;21.40;12.63;;;;;;;14.87;97.39;102074.19;4978292;28;20458;-76
2021/08/12 02:09:18;;;;;;;24.25;12.27;;;;;;;14.88;96.79;102072.38;4978762;28;20062;-74
2021/08/12 02:11:46;;;;;;;21.52;12.68;;;;;;;14.91;98.05;102072.28;4978753;28;20070;-74
2021/08/12 02:14:15;;;;;;;22.90;13.32;;;;;;;14.97;98.33;102080.16;4977878;28;20109;-74
2021/08/12 02:16:43;;;;;;;23.58;12.95;;;;;;;14.96;98.05;102069.44;4978878;28;20062;-74
2021/08/12 02:19:11;;;;;;;20.70;12.65;;;;;;;14.94;97.71;102064.13;4975690;28;20074;-74
2021/08/12 02:21:43;;;;;;;20.30;12.10;;;;;;;14.92;97.65;102071.34;4977215;28;20108;-74
2021/08/12 02:24:21;;;;;;;21.80;12.43;;;;;;;14.90;98.04;102067.84;4976705;28;20093;-74
2021/08/12 02:26:59;;;;;;;26.70;12.35;;;;;;;14.86;97.43;102064.34;4977186;28;20058;-75
2021/08/12 02:29:29;;;;;;;19.05;11.75;;;;;;;14.84;97.01;102063.50;4978695;28;20477;-74
2021/08/12 02:31:58;;;;;;;22.15;12.57;;;;;;;14.83;97.24;102067.16;4979323;28;20190;-75
2021/08/12 02:34:27;;;;;;;20.88;12.02;;;;;;;14.78;96.79;102066.41;4978789;28;20435;-75
2021/08/12 02:36:56;;;;;;;23.77;12.90;;;;;;;14.77;98.53;102064.63;4979698;28;20070;-75
2021/08/12 02:39:26;;;;;;;21.17;13.15;;;;;;;14.72;98.49;102064.75;4978708;28;20066;-74
2021/08/12 02:41:57;;;;;;;25.05;12.63;;;;;;;14.67;98.86;102058.66;4978743;28;20222;-74
2021/08/12 02:44:26;;;;;;;21.35;12.77;;;;;;;14.62;99.14;102057.91;4980651;28;20310;-75
2021/08/12 02:46:54;;;;;;;25.25;13.23;;;;;;;14.60;98.80;102061.59;4979304;28;20074;-74
2021/08/12 02:49:23;;;;;;;23.35;13.35;;;;;;;14.55;99.19;102067.91;4978220;28;20149;-74
2021/08/12 02:51:53;;;;;;;24.13;12.73;;;;;;;14.54;98.62;102063.50;4978964;28;20062;-74
2021/08/12 02:54:21;;;;;;;20.90;12.25;;;;;;;14.54;99.16;102060.81;4978521;28;20123;-74
2021/08/12 02:56:49;;;;;;;20.05;12.13;;;;;;;14.54;99.17;102059.91;4979302;28;20073;-76
2021/08/12 02:59:19;;;;;;;24.42;14.65;;;;;;;14.55;99.68;102057.19;4978848;28;20104;-75
2021/08/12 03:01:48;;;;;;;22.33;11.70;;;;;;;14.50;99.01;102058.25;4977560;28;20069;-75
2021/08/12 03:04:19;;;;;;;20.88;12.30;;;;;;;14.42;98.84;102066.53;4981796;28;20536;-75
2021/08/12 03:06:53;;;;;;;20.20;12.10;;;;;;;14.37;99.35;102063.97;4983887;28;20082;-74
2021/08/12 03:09:22;;;;;;;21.88;12.93;;;;;;;14.34;99.43;102068.56;4981608;28;20070;-74
2021/08/12 03:11:53;;;;;;;19.88;12.98;;;;;;;14.30;98.45;102065.09;4981586;28;20409;-74
2021/08/12 03:14:23;;;;;;;21.25;11.90;;;;;;;14.30;98.72;102067.75;4980714;28;20062;-74
2021/08/12 03:16:51;;;;;;;23.00;12.38;;;;;;;14.30;99.91;102073.13;4981009;28;20386;-74
2021/08/12 03:19:19;;;;;;;25.02;13.35;;;;;;;14.29;99.16;102070.50;4982686;28;20047;-74
2021/08/12 03:22:02;;;;;;;19.75;12.38;;;;;;;14.29;98.39;102065.13;4982625;28;20069;-74
2021/08/12 03:24:32;;;;;;;22.55;11.88;;;;;;;14.27;99.32;102070.53;4984575;28;20062;-74
2021/08/12 03:27:00;;;;;;;21.05;11.25;;;;;;;14.29;99.83;102079.41;4981439;28;20445;-75
2021/08/12 03:29:30;;;;;;;24.75;12.75;;;;;;;14.23;100.00;102086.75;4981125;28;20062;-75
2021/08/12 03:31:58;;;;;;;23.92;12.85;;;;;;;14.20;100.00;102079.69;4978702;28;20390;-75
2021/08/12 03:34:25;;;;;;;21.35;12.43;;;;;;;14.22;100.00;102077.84;4982158;28;20066;-71
2021/08/12 03:36:53;;;;;;;21.42;11.63;;;;;;;14.23;100.00;102070.66;4982259;28;20070;-71
2021/08/12 03:39:22;;;;;;;21.00;12.20;;;;;;;14.20;99.99;102075.19;4983555;28;20062;-71
2021/08/12 03:41:51;;;;;;;21.08;12.13;;;;;;;14.20;100.00;102061.75;4981565;28;20516;-71
2021/08/12 03:44:19;;;;;;;22.10;11.85;;;;;;;14.23;100.00;102070.66;4981290;28;20098;-71
2021/08/12 03:47:05;;;;;;;21.38;11.20;;;;;;;14.22;99.58;102069.78;4978050;28;20066;-71
2021/08/12 03:49:36;;;;;;;30.27;16.50;;;;;;;14.24;100.00;102067.94;4978971;28;20101;-71
2021/08/12 03:52:05;;;;;;;28.77;15.02;;;;;;;14.28;100.00;102076.78;4980460;28;20128;-71
2021/08/12 03:54:35;;;;;;;25.95;14.98;;;;;;;14.30;100.00;102083.88;4981243;28;20074;-71
2021/08/12 03:57:04;;;;;;;29.27;15.30;;;;;;;14.32;100.00;102073.97;4980618;28;20161;-72
2021/08/12 03:59:32;;;;;;;27.77;14.02;;;;;;;14.29;100.00;102066.00;4979965;28;20501;-71
2021/08/12 04:02:00;;;;;;;29.63;15.85;;;;;;;14.29;100.00;102076.72;4979718;28;20066;-70
2021/08/12 04:04:29;;;;;;;28.95;14.82;;;;;;;14.28;100.00;102072.28;4981190;28;20117;-75
2021/08/12 04:06:57;;;;;;;29.60;16.23;;;;;;;14.31;100.00;102066.81;4980132;28;20062;-75
2021/08/12 04:09:25;;;;;;;25.98;14.27;;;;;;;14.36;100.00;102072.06;4981464;28;20396;-75
2021/08/12 04:11:52;;;;;;;28.13;14.35;;;;;;;14.36;100.00;102070.25;4981503;28;20066;-74
2021/08/12 04:14:20;;;;;;;33.83;17.17;;;;;;;14.40;100.00;102076.41;4979371;28;20073;-75
2021/08/12 04:16:49;;;;;;;29.63;16.10;;;;;;;14.38;100.00;102071.09;4980915;28;20149;-74
2021/08/12 04:19:17;;;;;;;33.88;17.27;;;;;;;14.37;100.00;102074.72;4982098;28;20074;-72
2021/08/12 04:21:46;;;;;;;33.58;17.25;;;;;;;14.38;100.00;102068.41;4979442;28;20066;-71
2021/08/12 04:24:13;;;;;;;36.83;18.38;;;;;;;14.43;100.00;102078.16;4982825;28;20062;-71
2021/08/12 04:26:42;;;;;;;33.10;17.25;;;;;;;14.46;100.00;102070.88;4981553;28;20090;-71
2021/08/12 04:29:10;;;;;;;41.80;20.65;;;;;;;14.47;100.00;102080.72;4979838;28;20066;-71
2021/08/12 04:31:37;;;;;;;34.58;18.13;;;;;;;14.48;100.00;102073.53;4978535;28;20062;-71
2021/08/12 04:34:05;;;;;;;32.53;16.83;;;;;;;14.50;100.00;102080.59;4980188;28;20047;-71
2021/08/12 04:36:33;;;;;;;36.92;18.55;;;;;;;14.49;100.00;102078.84;4979725;28;20066;-71
2021/08/12 04:39:03;;;;;;;32.83;17.92;;;;;;;14.48;100.00;102073.53;4978719;28;20135;-71
2021/08/12 04:41:31;;;;;;;38.42;18.70;;;;;;;14.52;100.00;102086.84;4982422;28;20062;-71
2021/08/12 04:43:59;;;;;;;41.20;20.00;;;;;;;14.55;100.00;102085.84;4980512;28;20058;-71
2021/08/12 04:46:27;;;;;;;41.70;20.98;;;;;;;14.61;100.00;102088.41;4978842;28;20066;-71
2021/08/12 04:48:55;;;;;;;43.13;20.00;;;;;;;14.61;100.00;102096.47;4977383;28;20066;-71
2021/08/12 04:51:23;;;;;;;42.30;20.40;;;;;;;14.64;100.00;102090.09;4980545;28;20396;-71
2021/08/12 04:53:50;;;;;;;35.28;18.55;;;;;;;14.69;100.00;102098.91;4979423;28;20098;-72
2021/08/12 04:56:20;;;;;;;40.20;20.38;;;;;;;14.71;100.00;102099.72;4979754;28;20063;-71
2021/08/12 04:58:48;;;;;;;39.28;19.38;;;;;;;14.71;100.00;102097.94;4978048;28;20050;-71
2021/08/12 05:01:20;;;;;;;40.13;20.08;;;;;;;14.78;100.00;102106.72;4979756;28;20430;-71
2021/08/12 05:03:48;;;;;;;37.92;19.42;;;;;;;14.81;100.00;102095.84;4978812;28;20073;-71
2021/08/12 05:06:16;;;;;;;44.60;19.88;;;;;;;14.89;100.00;102087.56;4980191;28;20042;-71
2021/08/12 05:08:44;;;;;;;41.83;20.20;;;;;;;14.97;100.00;102081.97;4978597;28;20066;-71
2021/08/12 05:11:13;;;;;;;47.67;21.63;;;;;;;15.04;100.00;102081.72;4977726;28;20096;-70
2021/08/12 05:13:42;;;;;;;42.15;20.80;;;;;;;15.08;100.00;102069.94;4981333;28;20097;-72
2021/08/12 05:16:10;;;;;;;48.42;21.13;;;;;;;15.14;100.00;102071.56;4977670;28;20070;-72
2021/08/12 05:18:39;;;;;;;46.38;21.67;;;;;;;15.21;100.00;102078.50;4980113;28;20456;-71
2021/08/12 05:21:07;;;;;;;42.25;21.05;;;;;;;15.24;100.00;102085.59;4976134;28;20070;-72
2021/08/12 05:23:36;;;;;;;38.67;20.63;;;;;;;15.26;100.00;102078.38;4978764;28;20125;-71
2021/08/12 05:26:04;;;;;;;43.88;22.08;;;;;;;15.34;100.00;102072.72;4977835;28;20072;-70
2021/08/12 05:28:31;;;;;;;44.22;21.88;;;;;;;15.38;100.00;102080.66;4975969;28;20417;-72
2021/08/12 05:31:04;;;;;;;42.58;21.80;;;;;;;15.40;100.00;102083.28;4977728;28;20070;-72
2021/08/12 05:33:34;;;;;;;44.97;21.45;;;;;;;15.40;100.00;102081.47;4977586;28;20093;-72
2021/08/12 05:36:02;;;;;;;45.53;22.20;;;;;;;15.42;100.00;102076.06;4979088;28;20117;-72
2021/08/12 05:38:29;;;;;;;50.28;23.00;;;;;;;15.45;100.00;102082.19;4977071;28;20058;-71
2021/08/12 05:40:57;;;;;;;44.78;22.52;;;;;;;15.46;100.00;102085.75;4977971;28;20499;-71
2021/08/12 05:43:25;;;;;;;48.05;23.35;;;;;;;15.50;100.00;102092.81;4977839;28;20058;-72
2021/08/12 05:45:53;;;;;;;49.35;21.58;;;;;;;15.49;100.00;102091.03;4976032;28;20172;-71
2021/08/12 05:48:22;;;;;;;43.92;20.42;;;;;;;15.53;100.00;102095.41;4981462;28;20062;-71
2021/08/12 05:50:50;;;;;;;42.90;21.30;;;;;;;15.66;100.00;102101.25;4977916;28;20081;-72
2021/08/12 05:53:20;;;;;;;47.65;21.70;;;;;;;15.78;100.00;102094.63;4978668;28;20069;-71
2021/08/12 05:55:48;;;;;;;45.72;21.85;;;;;;;16.00;100.00;102090.25;4977010;28;20063;-71
2021/08/12 05:58:16;;;;;;;43.08;19.90;;;;;;;16.22;99.43;102084.97;4978218;28;20043;-72
2021/08/12 06:00:44;;;;;;;44.35;19.38;;;;;;;16.54;99.15;102090.13;4979534;28;20369;-72
2021/08/12 06:03:13;;;;;;;37.75;20.05;;;;;;;16.69;97.45;102097.63;4978154;28;20481;-71
2021/08/12 06:05:43;;;;;;;45.53;21.75;;;;;;;16.90;96.17;102098.66;4978843;28;20157;-71
2021/08/12 06:08:13;;;;;;;49.03;19.58;;;;;;;17.08;95.15;102101.59;4975490;28;20066;-71
2021/08/12 06:10:42;;;;;;;37.17;19.15;;;;;;;17.22;93.78;102099.22;4980262;28;20169;-72
2021/08/12 06:13:10;;;;;;;36.13;17.60;;;;;;;17.35;91.34;102102.31;4978038;28;20062;-71
2021/08/12 06:15:37;;;;;;;36.83;16.67;;;;;;;17.74;91.69;102096.16;4979381;28;20050;-71
2021/08/12 06:18:10;;;;;;;32.65;16.88;;;;;;;17.98;90.12;102104.19;4977955;28;20080;-72
2021/08/12 06:20:39;;;;;;;32.67;16.58;;;;;;;18.28;86.87;102089.34;4977552;28;21391;-71
2021/08/12 06:23:09;;;;;;;33.15;15.45;;;;;;;18.49;85.90;102097.47;4979020;28;20149;-73
2021/08/12 06:25:39;;;;;;;28.38;14.75;;;;;;;18.63;84.99;102107.63;4976498;28;20461;-73
2021/08/12 06:28:08;;;;;;;31.27;15.20;;;;;;;18.62;84.38;102095.91;4977501;28;20500;-77
2021/08/12 06:30:37;;;;;;;24.15;13.45;;;;;;;18.91;83.45;102093.72;4978062;28;20073;-76
2021/08/12 06:33:06;;;;;;;23.38;12.60;;;;;;;18.80;81.06;102093.34;4974911;28;20069;-78
2021/08/12 06:35:35;;;;;;;23.08;11.85;;;;;;;18.91;81.92;102092.84;4978565;28;20476;-76
2021/08/12 06:38:04;;;;;;;21.25;11.15;;;;;;;19.30;81.24;102089.19;4975944;28;20058;-76
2021/08/12 06:40:34;;;;;;;21.73;12.35;;;;;;;19.44;79.57;102092.06;4977622;28;20070;-77
2021/08/12 06:43:02;;;;;;;24.70;11.38;;;;;;;19.65;78.44;102091.94;4977122;28;20407;-78
2021/08/12 06:45:30;;;;;;;21.70;12.18;;;;;;;19.97;77.83;102087.63;4976454;28;20069;-76
2021/08/12 06:47:57;;;;;;;25.05;11.82;;;;;;;20.00;76.18;102084.75;4978248;28;20098;-76
2021/08/12 06:50:25;;;;;;;19.90;10.57;;;;;;;19.69;74.29;102078.19;4976374;28;20445;-77
2021/08/12 06:52:53;;;;;;;21.45;10.23;;;;;;;20.20;75.06;102096.38;4973658;28;20164;-76
2021/08/12 06:55:22;;;;;;;18.40;9.50;;;;;;;20.39;73.50;102094.44;4977939;28;20067;-77
2021/08/12 06:57:51;;;;;;;21.50;9.77;;;;;;;20.45;72.21;102090.50;4977050;28;20113;-76
2021/08/12 07:00:21;;;;;;;17.25;9.98;;;;;;;20.67;71.60;102091.16;4978256;28;20062;-76
2021/08/12 07:02:49;;;;;;;17.80;10.35;;;;;;;20.39;71.03;102085.44;4974869;28;20113;-77
2021/08/12 07:05:18;;;;;;;18.15;9.95;;;;;;;20.69;70.17;102091.94;4977373;28;20062;-77
2021/08/12 07:07:45;;;;;;;21.60;8.88;;;;;;;20.88;69.82;102090.91;4979016;28;20065;-77
2021/08/12 07:10:14;;;;;;;15.52;7.97;;;;;;;21.03;69.52;102086.47;4978458;28;20075;-77
2021/08/12 07:12:42;;;;;;;14.43;7.53;;;;;;;20.89;66.75;102093.53;4979599;28;20065;-77
2021/08/12 07:15:12;;;;;;;16.20;7.85;;;;;;;20.82;68.60;102091.25;4973624;28;20117;-76
2021/08/12 07:17:40;;;;;;;13.35;6.85;;;;;;;20.98;67.72;102086.72;4977103;28;20079;-75
2021/08/12 07:20:09;;;;;;;16.67;7.13;;;;;;;21.14;64.72;102089.44;4976714;28;20066;-77
2021/08/12 07:22:37;;;;;;;12.68;6.70;;;;;;;21.13;64.79;102095.84;4978961;28;20062;-75
2021/08/12 07:25:05;;;;;;;14.77;7.28;;;;;;;21.12;65.35;102101.34;4979052;28;20128;-76
2021/08/12 07:27:33;;;;;;;12.07;6.32;;;;;;;21.27;64.48;102100.47;4979296;28;20440;-76
2021/08/12 07:30:01;;;;;;;13.05;6.07;;;;;;;21.55;63.43;102101.63;4977691;28;20066;-74
2021/08/12 07:32:31;;;;;;;14.15;5.97;;;;;;;21.39;63.13;102094.34;4978155;28;20063;-74
2021/08/12 07:34:59;;;;;;;9.75;5.60;;;;;;;21.91;62.08;102095.81;4977854;28;20070;-75
2021/08/12 07:37:26;;;;;;;12.10;5.35;;;;;;;21.78;61.31;102102.97;4977798;28;20065;-74
2021/08/12 07:39:54;;;;;;;10.43;5.40;;;;;;;21.99;61.13;102098.09;4979322;28;20066;-74
2021/08/12 07:42:22;;;;;;;12.50;5.40;;;;;;;22.02;59.74;102106.06;4977887;28;20089;-71
2021/08/12 07:44:50;;;;;;;9.65;5.13;;;;;;;21.93;59.62;102098.44;4976760;28;21172;-70
2021/08/12 07:47:17;;;;;;;11.45;4.88;;;;;;;22.04;58.92;102098.69;4979651;28;20062;-71
2021/08/12 07:49:46;;;;;;;13.55;5.53;;;;;;;22.40;59.04;102099.28;4977456;28;20303;-71
2021/08/12 07:52:14;;;;;;;11.00;4.78;;;;;;;22.36;57.38;102098.59;4981790;28;20399;-71
2021/08/12 07:54:45;;;;;;;9.88;5.07;;;;;;;22.34;57.08;102093.25;4978940;28;20094;-70
2021/08/12 07:57:13;;;;;;;9.63;4.93;;;;;;;23.00;57.12;102092.75;4980267;28;20112;-71
2021/08/12 07:59:41;;;;;;;10.32;4.95;;;;;;;22.62;55.62;102090.63;4978955;28;20074;-72
2021/08/12 08:02:09;;;;;;;9.15;4.65;;;;;;;22.93;56.99;102089.53;4980758;28;20682;-72
2021/08/12 08:04:37;;;;;;;10.20;4.55;;;;;;;22.88;54.27;102098.03;4980725;28;20165;-71
2021/08/12 08:07:06;;;;;;;9.93;4.65;;;;;;;22.73;54.71;102088.09;4979660;28;20050;-72
2021/08/12 08:09:34;;;;;;;9.68;4.15;;;;;;;23.24;53.76;102095.72;4981263;28;20370;-71
2021/08/12 08:12:02;;;;;;;9.02;4.22;;;;;;;23.37;51.94;102085.78;4982126;28;20396;-71
2021/08/12 08:14:30;;;;;;;11.02;4.05;;;;;;;23.39;52.58;102097.44;4982764;28;20062;-72
2021/08/12 08:17:12;;;;;;;8.65;4.40;;;;;;;23.47;52.89;102099.66;4940329;28;20074;-72
2021/08/12 08:19:39;;;;;;;11.45;4.38;;;;;;;23.72;53.08;102095.25;4940675;28;20051;-71
2021/08/12 08:22:08;;;;;;;8.63;4.57;;;;;;;24.40;51.87;102100.53;4941164;28;20047;-71
2021/08/12 08:24:36;;;;;;;10.85;4.82;;;;;;;23.85;52.17;102105.28;4941471;28;20067;-72
2021/08/12 08:27:04;;;;;;;8.93;4.82;;;;;;;23.83;52.40;102100.91;4940817;28;20075;-72
2021/08/12 08:29:32;;;;;;;9.15;4.38;;;;;;;24.16;50.46;102104.97;4938376;28;20064;-72
2021/08/12 08:32:00;;;;;;;7.55;4.22;;;;;;;24.01;51.67;102096.91;4939066;28;20141;-72
2021/08/12 08:34:27;;;;;;;11.77;4.97;;;;;;;24.34;50.93;102097.38;4942071;28;20572;-72
2021/08/12 08:36:55;;;;;;;7.65;4.43;;;;;;;24.72;50.71;102105.59;4938963;28;20061;-72
2021/08/12 08:39:24;;;;;;;7.78;4.50;;;;;;;24.10;52.07;102098.13;4939038;28;20100;-72
2021/08/12 08:41:53;;;;;;;10.60;4.38;;;;;;;24.22;51.24;102105.44;4939927;28;20102;-72
2021/08/12 08:44:23;;;;;;;9.65;3.97;;;;;;;24.34;52.33;102102.84;4939726;28;20139;-71
2021/08/12 08:46:52;;;;;;;10.50;4.28;;;;;;;24.32;51.52;102102.06;4962657;28;20058;-72
2021/08/12 08:49:22;;;;;;;8.68;4.18;;;;;;;24.33;51.75;102106.53;4980673;28;20391;-72
2021/08/12 08:51:51;;;;;;;9.35;4.70;;;;;;;24.70;51.06;102098.47;4979224;28;20094;-71
2021/08/12 08:54:19;;;;;;;8.50;4.40;;;;;;;24.98;50.85;102100.94;4981508;28;20090;-71
2021/08/12 08:56:48;;;;;;;8.45;4.05;;;;;;;25.19;50.21;102100.34;4981267;28;20066;-72
2021/08/12 08:59:16;;;;;;;11.77;4.25;;;;;;;24.90;50.20;102106.09;4979980;28;20129;-72
2021/08/12 09:01:43;;;;;;;10.68;4.45;;;;;;;25.07;49.29;102107.59;4979738;28;20407;-72
2021/08/12 09:04:13;;;;;;;9.90;4.35;;;;;;;25.54;49.22;102105.06;4981093;28;20066;-72
2021/08/12 09:06:41;;;;;;;8.27;4.40;;;;;;;25.35;49.34;102105.56;4980525;28;20069;-72
2021/08/12 09:09:11;;;;;;;8.85;4.10;;;;;;;25.92;48.08;102095.78;4978782;28;20061;-72
2021/08/12 09:11:38;;;;;;;11.50;4.70;;;;;;;25.51;48.27;102106.16;4980987;28;20088;-71
2021/08/12 09:14:33;;;;;;;9.02;4.68;;;;;;;25.50;49.61;102111.72;4979905;28;20070;-71
2021/08/12 09:17:22;;;;;;;13.32;4.35;;;;;;;25.09;50.07;102113.78;4979287;28;20066;-76
2021/08/12 09:20:04;;;;;;;10.50;5.05;;;;;;;25.07;48.53;102114.91;4982711;28;20062;-75
2021/08/12 09:22:46;;;;;;;10.68;4.85;;;;;;;25.17;49.13;102105.06;4980395;28;20046;-75
2021/08/12 09:25:14;;;;;;;9.95;4.55;;;;;;;25.25;48.67;102108.09;4980472;28;20089;-76
2021/08/12 09:27:42;;;;;;;7.55;4.18;;;;;;;25.00;49.97;102105.44;4980039;28;20062;-76
2021/08/12 09:30:13;;;;;;;8.20;4.70;;;;;;;25.84;49.85;102106.41;4977952;28;20365;-76
2021/08/12 09:32:46;;;;;;;8.93;4.60;;;;;;;25.33;49.15;102105.66;4978233;28;20093;-76
2021/08/12 09:35:21;;;;;;;10.05;4.88;;;;;;;26.02;48.51;102099.56;4976652;28;20117;-76
2021/08/12 09:37:49;;;;;;;9.20;4.63;;;;;;;26.28;48.51;102102.09;4976596;28;20398;-75
2021/08/12 09:40:25;;;;;;;11.95;5.28;;;;;;;26.14;48.48;102102.34;4979802;28;20323;-76
2021/08/12 09:42:57;;;;;;;9.77;4.68;;;;;;;26.73;47.44;102106.78;4980181;28;20145;-76
2021/08/12 09:45:28;;;;;;;8.88;4.80;;;;;;;26.91;47.58;102116.22;4979128;28;20199;-75
2021/08/12 09:47:57;;;;;;;9.15;4.22;;;;;;;26.30;47.44;102107.47;4978735;28;20086;-76
2021/08/12 09:50:26;;;;;;;10.32;4.53;;;;;;;26.14;48.15;102116.00;4973925;28;20058;-76
2021/08/12 09:52:54;;;;;;;11.55;5.28;;;;;;;26.51;48.19;102122.19;4979398;28;20067;-75
2021/08/12 09:55:23;;;;;;;9.18;5.20;;;;;;;26.28;48.44;102113.91;4978556;28;20138;-75
2021/08/12 09:57:54;;;;;;;9.48;4.28;;;;;;;26.93;48.11;102107.91;4977674;28;20074;-76
2021/08/12 10:00:32;;;;;;;9.95;5.03;;;;;;;26.04;49.49;102105.78;4978409;28;20058;-76
2021/08/12 10:03:01;;;;;;;10.23;4.55;;;;;;;26.84;48.20;102104.06;4980466;28;20418;-76
2021/08/12 10:05:30;;;;;;;8.15;4.55;;;;;;;26.00;49.08;102100.66;4979724;28;20128;-76
2021/08/12 10:07:58;;;;;;;10.13;4.68;;;;;;;26.04;49.06;102105.78;4978452;28;20455;-76
2021/08/12 10:10:29;;;;;;;8.45;4.32;;;;;;;26.37;49.73;102103.22;4978457;28;20073;-77
2021/08/12 10:13:00;;;;;;;9.25;3.95;;;;;;;26.64;48.67;102100.19;4978813;28;20161;-76
2021/08/12 10:15:31;;;;;;;9.75;4.70;;;;;;;26.72;47.72;102105.06;4979490;28;20066;-76
2021/08/12 10:18:01;;;;;;;8.75;4.18;;;;;;;26.63;48.54;102104.81;4978195;28;20062;-76
2021/08/12 10:20:31;;;;;;;7.40;4.00;;;;;;;26.41;48.75;102100.16;4976352;28;20866;-77
2021/08/12 10:23:02;;;;;;;9.50;4.35;;;;;;;27.08;47.81;102101.16;4978083;28;20498;-77
2021/08/12 10:25:30;;;;;;;8.13;3.72;;;;;;;26.93;47.51;102110.63;4978861;28;20105;-77
2021/08/12 10:28:01;;;;;;;8.75;4.68;;;;;;;26.57;49.94;102105.25;4978856;28;20473;-76
2021/08/12 10:30:31;;;;;;;13.45;4.70;;;;;;;27.44;47.28;102109.22;4978753;28;20147;-76
2021/08/12 10:33:01;;;;;;;9.85;4.47;;;;;;;26.37;49.47;102111.44;4977450;28;20487;-76
2021/08/12 10:35:31;;;;;;;10.55;4.85;;;;;;;27.10;48.14;102101.03;4978672;28;20062;-76
2021/08/12 10:38:01;;;;;;;11.40;4.75;;;;;;;27.31;47.90;102107.50;4977499;28;20073;-76
2021/08/12 10:40:31;;;;;;;9.82;4.43;;;;;;;27.20;47.85;102097.38;4977561;28;20066;-76
2021/08/12 10:43:00;;;;;;;9.35;4.53;;;;;;;26.93;48.64;102103.28;4982157;28;20108;-76
2021/08/12 10:45:29;;;;;;;9.13;4.07;;;;;;;27.07;48.56;102102.13;4975946;28;20051;-76
2021/08/12 10:48:00;;;;;;;9.10;4.40;;;;;;;27.37;47.34;102093.28;4976477;28;20047;-76
2021/08/12 10:50:36;;;;;;;8.25;4.53;;;;;;;27.08;47.53;102094.81;4978459;28;20065;-76
2021/08/12 10:53:31;;;;;;;9.00;4.15;;;;;;;26.26;48.88;102102.22;4977654;28;20070;-76
2021/08/12 10:56:18;;;;;;;9.30;4.63;;;;;;;26.49;50.23;102099.50;4978092;28;20465;-76
2021/08/12 10:59:05;;;;;;;10.40;4.55;;;;;;;25.98;50.53;102098.03;4979823;28;20085;-76
2021/08/12 11:01:36;;;;;;;8.10;4.40;;;;;;;25.80;50.89;102107.66;4982094;28;20147;-76
2021/08/12 11:04:06;;;;;;;8.13;4.63;;;;;;;25.50;51.96;102114.47;4978499;28;20078;-76
2021/08/12 11:06:39;;;;;;;9.20;4.80;;;;;;;25.60;52.37;102106.44;4980108;28;20747;-76
2021/08/12 11:09:08;;;;;;;8.43;5.03;;;;;;;25.04;53.69;102121.44;4978217;28;20093;-76
2021/08/12 11:11:57;;;;;;;8.95;4.65;;;;;;;25.87;53.26;102109.78;4979830;28;20366;-76
2021/08/12 11:14:50;;;;;;;11.30;5.75;;;;;;;24.96;55.05;102111.13;4979671;28;20062;-75
2021/08/12 11:17:18;;;;;;;9.32;5.43;;;;;;;25.62;54.41;102112.66;4979420;28;20066;-76
2021/08/12 11:19:48;;;;;;;13.13;5.55;;;;;;;26.66;52.92;102109.13;4977105;28;20442;-76
2021/08/12 11:22:40;;;;;;;11.75;5.55;;;;;;;26.73;51.69;102102.19;4978719;28;20567;-75
2021/08/12 11:25:09;;;;;;;13.15;5.22;;;;;;;26.07;51.95;102102.81;4963235;28;20069;-75